sensor_id;sensor_type;location;lat;lon;timestamp;temperature;humidity
15705;DHT22;7952;48.396;12.806;2023-06-04T00:01:22;16.80;40.40
15705;DHT22;7952;48.396;12.806;2023-06-04T00:03:47;16.80;40.50
15705;DHT22;7952;48.396;12.806;2023-06-04T00:06:13;16.80;40.50
15705;DHT22;7952;48.396;12.806;2023-06-04T00:08:39;16.80;40.50
15705;DHT22;7952;48.396;12.806;2023-06-04T00:11:05;16.70;40.50
15705;DHT22;7952;48.396;12.806;2023-06-04T00:13:31;16.70;40.40
15705;DHT22;7952;48.396;12.806;2023-06-04T00:15:56;16.70;40.40
15705;DHT22;7952;48.396;12.806;2023-06-04T00:18:22;16.70;40.40
15705;DHT22;7952;48.396;12.806;2023-06-04T00:20:48;16.70;40.40
15705;DHT22;7952;48.396;12.806;2023-06-04T00:23:13;16.70;40.40
15705;DHT22;7952;48.396;12.806;2023-06-04T00:25:42;16.60;40.30
15705;DHT22;7952;48.396;12.806;2023-06-04T00:28:08;16.60;40.30
15705;DHT22;7952;48.396;12.806;2023-06-04T00:30:33;16.60;40.40
15705;DHT22;7952;48.396;12.806;2023-06-04T00:33:00;16.50;41.00
15705;DHT22;7952;48.396;12.806;2023-06-04T00:35:26;16.50;40.40
15705;DHT22;7952;48.396;12.806;2023-06-04T00:37:51;16.40;40.40
15705;DHT22;7952;48.396;12.806;2023-06-04T00:40:17;16.40;40.40
15705;DHT22;7952;48.396;12.806;2023-06-04T00:42:44;16.40;40.50
15705;DHT22;7952;48.396;12.806;2023-06-04T00:45:10;16.30;40.50
15705;DHT22;7952;48.396;12.806;2023-06-04T00:47:36;16.30;40.60
15705;DHT22;7952;48.396;12.806;2023-06-04T00:50:02;16.30;40.60
15705;DHT22;7952;48.396;12.806;2023-06-04T00:52:28;16.30;40.60
15705;DHT22;7952;48.396;12.806;2023-06-04T00:54:54;16.20;40.50
15705;DHT22;7952;48.396;12.806;2023-06-04T00:57:21;16.20;40.50
15705;DHT22;7952;48.396;12.806;2023-06-04T00:59:47;16.20;40.50
15705;DHT22;7952;48.396;12.806;2023-06-04T01:02:18;16.20;40.60
15705;DHT22;7952;48.396;12.806;2023-06-04T01:07:30;16.10;40.50
15705;DHT22;7952;48.396;12.806;2023-06-04T01:09:56;16.00;40.50
15705;DHT22;7952;48.396;12.806;2023-06-04T01:12:22;16.00;40.50
15705;DHT22;7952;48.396;12.806;2023-06-04T01:14:47;16.00;40.60
15705;DHT22;7952;48.396;12.806;2023-06-04T01:17:26;16.00;40.60
15705;DHT22;7952;48.396;12.806;2023-06-04T01:25:37;15.90;40.50
15705;DHT22;7952;48.396;12.806;2023-06-04T01:28:11;15.90;40.50
15705;DHT22;7952;48.396;12.806;2023-06-04T01:30:40;15.80;40.50
15705;DHT22;7952;48.396;12.806;2023-06-04T01:33:10;15.80;40.50
15705;DHT22;7952;48.396;12.806;2023-06-04T01:35:39;15.70;40.50
15705;DHT22;7952;48.396;12.806;2023-06-04T01:38:05;15.70;40.60
15705;DHT22;7952;48.396;12.806;2023-06-04T01:40:31;15.60;40.50
15705;DHT22;7952;48.396;12.806;2023-06-04T01:42:58;15.60;40.60
15705;DHT22;7952;48.396;12.806;2023-06-04T01:45:25;15.50;40.60
15705;DHT22;7952;48.396;12.806;2023-06-04T01:47:52;15.50;40.70
15705;DHT22;7952;48.396;12.806;2023-06-04T01:50:18;15.40;40.60
15705;DHT22;7952;48.396;12.806;2023-06-04T01:52:43;15.40;40.70
15705;DHT22;7952;48.396;12.806;2023-06-04T01:55:12;15.40;40.70
15705;DHT22;7952;48.396;12.806;2023-06-04T01:57:39;15.30;40.70
15705;DHT22;7952;48.396;12.806;2023-06-04T02:00:07;15.30;40.70
15705;DHT22;7952;48.396;12.806;2023-06-04T02:02:34;15.30;40.70
15705;DHT22;7952;48.396;12.806;2023-06-04T02:05:01;15.30;40.70
15705;DHT22;7952;48.396;12.806;2023-06-04T02:07:27;15.20;40.60
15705;DHT22;7952;48.396;12.806;2023-06-04T02:09:53;15.20;41.20
15705;DHT22;7952;48.396;12.806;2023-06-04T02:12:19;15.20;40.70
15705;DHT22;7952;48.396;12.806;2023-06-04T02:14:44;15.10;40.60
15705;DHT22;7952;48.396;12.806;2023-06-04T02:17:11;15.10;40.60
15705;DHT22;7952;48.396;12.806;2023-06-04T02:19:43;15.10;40.60
15705;DHT22;7952;48.396;12.806;2023-06-04T02:22:13;15.10;40.60
15705;DHT22;7952;48.396;12.806;2023-06-04T02:24:39;15.10;40.60
15705;DHT22;7952;48.396;12.806;2023-06-04T02:27:08;15.00;40.50
15705;DHT22;7952;48.396;12.806;2023-06-04T02:29:34;15.00;40.60
15705;DHT22;7952;48.396;12.806;2023-06-04T02:31:59;15.00;40.60
15705;DHT22;7952;48.396;12.806;2023-06-04T02:34:25;14.90;40.50
15705;DHT22;7952;48.396;12.806;2023-06-04T02:36:51;14.90;40.60
15705;DHT22;7952;48.396;12.806;2023-06-04T02:39:18;14.90;40.60
15705;DHT22;7952;48.396;12.806;2023-06-04T02:41:43;14.80;40.60
15705;DHT22;7952;48.396;12.806;2023-06-04T02:44:09;14.80;40.70
15705;DHT22;7952;48.396;12.806;2023-06-04T02:46:35;14.70;40.60
15705;DHT22;7952;48.396;12.806;2023-06-04T02:49:00;14.70;40.70
15705;DHT22;7952;48.396;12.806;2023-06-04T02:51:26;14.70;40.80
15705;DHT22;7952;48.396;12.806;2023-06-04T02:53:54;14.60;40.70
15705;DHT22;7952;48.396;12.806;2023-06-04T02:56:20;14.60;40.70
15705;DHT22;7952;48.396;12.806;2023-06-04T02:58:53;14.60;40.80
15705;DHT22;7952;48.396;12.806;2023-06-04T03:01:21;14.60;40.80
15705;DHT22;7952;48.396;12.806;2023-06-04T03:03:47;14.50;40.80
15705;DHT22;7952;48.396;12.806;2023-06-04T03:06:14;14.40;40.70
15705;DHT22;7952;48.396;12.806;2023-06-04T03:08:41;14.40;40.80
15705;DHT22;7952;48.396;12.806;2023-06-04T03:11:07;14.40;40.80
15705;DHT22;7952;48.396;12.806;2023-06-04T03:13:33;14.30;40.80
15705;DHT22;7952;48.396;12.806;2023-06-04T03:15:59;14.40;40.90
15705;DHT22;7952;48.396;12.806;2023-06-04T03:18:30;14.30;40.80
15705;DHT22;7952;48.396;12.806;2023-06-04T03:20:56;14.30;40.80
15705;DHT22;7952;48.396;12.806;2023-06-04T03:23:22;14.30;40.90
15705;DHT22;7952;48.396;12.806;2023-06-04T03:25:48;14.30;40.90
15705;DHT22;7952;48.396;12.806;2023-06-04T03:28:14;14.30;40.90
15705;DHT22;7952;48.396;12.806;2023-06-04T03:30:40;14.30;40.90
15705;DHT22;7952;48.396;12.806;2023-06-04T03:33:08;14.40;41.00
15705;DHT22;7952;48.396;12.806;2023-06-04T03:35:33;14.50;41.00
15705;DHT22;7952;48.396;12.806;2023-06-04T03:38:00;14.60;41.10
15705;DHT22;7952;48.396;12.806;2023-06-04T03:40:25;14.70;41.00
15705;DHT22;7952;48.396;12.806;2023-06-04T03:42:51;14.80;40.90
15705;DHT22;7952;48.396;12.806;2023-06-04T03:45:17;14.90;40.90
15705;DHT22;7952;48.396;12.806;2023-06-04T03:47:43;15.00;40.90
15705;DHT22;7952;48.396;12.806;2023-06-04T03:50:09;15.10;40.80
15705;DHT22;7952;48.396;12.806;2023-06-04T03:52:35;15.20;40.80
15705;DHT22;7952;48.396;12.806;2023-06-04T03:55:01;15.20;40.80
15705;DHT22;7952;48.396;12.806;2023-06-04T03:57:27;15.30;40.80
15705;DHT22;7952;48.396;12.806;2023-06-04T03:59:52;15.40;41.00
15705;DHT22;7952;48.396;12.806;2023-06-04T04:02:18;15.60;41.00
15705;DHT22;7952;48.396;12.806;2023-06-04T04:04:47;15.80;40.80
15705;DHT22;7952;48.396;12.806;2023-06-04T04:07:13;16.10;40.90
15705;DHT22;7952;48.396;12.806;2023-06-04T04:09:39;16.30;40.90
15705;DHT22;7952;48.396;12.806;2023-06-04T04:12:08;16.60;40.90
15705;DHT22;7952;48.396;12.806;2023-06-04T04:14:34;16.90;40.90
15705;DHT22;7952;48.396;12.806;2023-06-04T04:16:59;17.30;40.90
15705;DHT22;7952;48.396;12.806;2023-06-04T04:19:25;17.70;40.80
15705;DHT22;7952;48.396;12.806;2023-06-04T04:21:54;18.10;40.60
15705;DHT22;7952;48.396;12.806;2023-06-04T04:24:27;18.50;40.50
15705;DHT22;7952;48.396;12.806;2023-06-04T04:26:53;18.90;40.40
15705;DHT22;7952;48.396;12.806;2023-06-04T04:29:23;19.40;40.30
15705;DHT22;7952;48.396;12.806;2023-06-04T04:31:50;19.80;40.20
15705;DHT22;7952;48.396;12.806;2023-06-04T04:34:16;20.20;40.10
15705;DHT22;7952;48.396;12.806;2023-06-04T04:36:43;20.50;40.00
15705;DHT22;7952;48.396;12.806;2023-06-04T04:39:10;20.90;40.00
15705;DHT22;7952;48.396;12.806;2023-06-04T04:41:37;21.20;39.90
15705;DHT22;7952;48.396;12.806;2023-06-04T04:44:04;21.60;39.80
15705;DHT22;7952;48.396;12.806;2023-06-04T04:46:30;21.90;39.70
15705;DHT22;7952;48.396;12.806;2023-06-04T04:48:56;22.20;39.60
15705;DHT22;7952;48.396;12.806;2023-06-04T04:51:22;22.50;39.50
15705;DHT22;7952;48.396;12.806;2023-06-04T04:53:47;22.80;39.40
15705;DHT22;7952;48.396;12.806;2023-06-04T04:56:13;23.00;39.30
15705;DHT22;7952;48.396;12.806;2023-06-04T04:58:39;23.30;39.20
15705;DHT22;7952;48.396;12.806;2023-06-04T05:01:05;23.40;39.20
15705;DHT22;7952;48.396;12.806;2023-06-04T05:03:34;23.60;39.20
15705;DHT22;7952;48.396;12.806;2023-06-04T05:05:59;23.80;39.10
15705;DHT22;7952;48.396;12.806;2023-06-04T05:08:25;24.00;39.10
15705;DHT22;7952;48.396;12.806;2023-06-04T05:10:51;24.30;39.10
15705;DHT22;7952;48.396;12.806;2023-06-04T05:13:17;24.50;39.00
15705;DHT22;7952;48.396;12.806;2023-06-04T05:15:43;24.80;38.90
15705;DHT22;7952;48.396;12.806;2023-06-04T05:18:08;25.10;38.80
15705;DHT22;7952;48.396;12.806;2023-06-04T05:20:34;25.30;38.60
15705;DHT22;7952;48.396;12.806;2023-06-04T05:23:04;25.50;38.50
15705;DHT22;7952;48.396;12.806;2023-06-04T05:25:30;25.70;38.40
15705;DHT22;7952;48.396;12.806;2023-06-04T05:27:56;25.90;38.20
15705;DHT22;7952;48.396;12.806;2023-06-04T05:30:22;26.10;38.20
15705;DHT22;7952;48.396;12.806;2023-06-04T05:32:48;26.30;38.00
15705;DHT22;7952;48.396;12.806;2023-06-04T05:35:16;26.40;37.90
15705;DHT22;7952;48.396;12.806;2023-06-04T05:37:42;26.50;37.80
15705;DHT22;7952;48.396;12.806;2023-06-04T05:40:11;26.60;37.70
15705;DHT22;7952;48.396;12.806;2023-06-04T05:42:38;26.70;37.80
15705;DHT22;7952;48.396;12.806;2023-06-04T05:45:05;26.70;37.60
15705;DHT22;7952;48.396;12.806;2023-06-04T05:47:33;26.80;37.50
15705;DHT22;7952;48.396;12.806;2023-06-04T05:49:59;26.80;37.50
15705;DHT22;7952;48.396;12.806;2023-06-04T05:52:25;26.80;37.30
15705;DHT22;7952;48.396;12.806;2023-06-04T05:54:50;26.80;37.40
15705;DHT22;7952;48.396;12.806;2023-06-04T05:57:16;26.90;37.40
15705;DHT22;7952;48.396;12.806;2023-06-04T05:59:42;27.00;37.40
15705;DHT22;7952;48.396;12.806;2023-06-04T06:02:08;27.10;37.20
15705;DHT22;7952;48.396;12.806;2023-06-04T06:04:34;27.10;37.10
15705;DHT22;7952;48.396;12.806;2023-06-04T06:07:00;27.10;37.00
15705;DHT22;7952;48.396;12.806;2023-06-04T06:09:26;27.20;37.00
15705;DHT22;7952;48.396;12.806;2023-06-04T06:11:51;27.20;36.80
15705;DHT22;7952;48.396;12.806;2023-06-04T06:14:18;27.30;36.70
15705;DHT22;7952;48.396;12.806;2023-06-04T06:16:44;27.20;36.40
15705;DHT22;7952;48.396;12.806;2023-06-04T06:19:09;27.30;36.40
15705;DHT22;7952;48.396;12.806;2023-06-04T06:21:36;27.20;36.30
15705;DHT22;7952;48.396;12.806;2023-06-04T06:24:02;27.20;36.10
15705;DHT22;7952;48.396;12.806;2023-06-04T06:26:28;27.20;36.30
15705;DHT22;7952;48.396;12.806;2023-06-04T06:28:54;27.30;36.30
15705;DHT22;7952;48.396;12.806;2023-06-04T06:31:21;27.30;36.20
15705;DHT22;7952;48.396;12.806;2023-06-04T06:33:47;27.40;36.10
15705;DHT22;7952;48.396;12.806;2023-06-04T06:36:16;27.50;35.90
15705;DHT22;7952;48.396;12.806;2023-06-04T06:38:44;27.60;35.70
15705;DHT22;7952;48.396;12.806;2023-06-04T06:41:10;27.60;35.70
15705;DHT22;7952;48.396;12.806;2023-06-04T06:43:36;27.70;35.50
15705;DHT22;7952;48.396;12.806;2023-06-04T06:46:02;27.80;36.10
15705;DHT22;7952;48.396;12.806;2023-06-04T06:48:28;28.00;35.30
15705;DHT22;7952;48.396;12.806;2023-06-04T06:50:54;28.00;35.10
15705;DHT22;7952;48.396;12.806;2023-06-04T06:53:20;28.10;35.00
15705;DHT22;7952;48.396;12.806;2023-06-04T06:55:46;28.20;34.80
15705;DHT22;7952;48.396;12.806;2023-06-04T06:58:12;28.20;34.50
15705;DHT22;7952;48.396;12.806;2023-06-04T07:00:38;28.10;34.20
15705;DHT22;7952;48.396;12.806;2023-06-04T07:03:04;27.90;34.00
15705;DHT22;7952;48.396;12.806;2023-06-04T07:05:30;27.80;34.00
15705;DHT22;7952;48.396;12.806;2023-06-04T07:07:56;27.70;33.90
15705;DHT22;7952;48.396;12.806;2023-06-04T07:10:23;27.60;34.10
15705;DHT22;7952;48.396;12.806;2023-06-04T07:12:50;27.60;33.90
15705;DHT22;7952;48.396;12.806;2023-06-04T07:15:16;27.60;34.00
15705;DHT22;7952;48.396;12.806;2023-06-04T07:17:41;27.70;34.10
15705;DHT22;7952;48.396;12.806;2023-06-04T07:20:07;27.80;34.00
15705;DHT22;7952;48.396;12.806;2023-06-04T07:22:35;27.90;33.80
15705;DHT22;7952;48.396;12.806;2023-06-04T07:25:01;28.00;33.60
15705;DHT22;7952;48.396;12.806;2023-06-04T07:27:27;28.00;33.40
15705;DHT22;7952;48.396;12.806;2023-06-04T07:29:53;28.00;33.40
15705;DHT22;7952;48.396;12.806;2023-06-04T07:32:19;27.90;33.20
15705;DHT22;7952;48.396;12.806;2023-06-04T07:34:45;27.80;33.20
15705;DHT22;7952;48.396;12.806;2023-06-04T07:37:10;27.70;33.10
15705;DHT22;7952;48.396;12.806;2023-06-04T07:39:38;27.60;33.00
15705;DHT22;7952;48.396;12.806;2023-06-04T07:42:04;27.50;33.10
15705;DHT22;7952;48.396;12.806;2023-06-04T07:44:32;27.30;33.20
15705;DHT22;7952;48.396;12.806;2023-06-04T07:46:58;27.30;33.20
15705;DHT22;7952;48.396;12.806;2023-06-04T07:49:24;27.20;33.20
15705;DHT22;7952;48.396;12.806;2023-06-04T07:51:50;27.20;33.50
15705;DHT22;7952;48.396;12.806;2023-06-04T07:54:15;27.10;33.40
15705;DHT22;7952;48.396;12.806;2023-06-04T07:56:42;27.10;33.40
15705;DHT22;7952;48.396;12.806;2023-06-04T07:59:07;27.00;33.30
15705;DHT22;7952;48.396;12.806;2023-06-04T08:01:34;26.90;33.50
15705;DHT22;7952;48.396;12.806;2023-06-04T08:04:00;26.90;33.50
15705;DHT22;7952;48.396;12.806;2023-06-04T08:06:26;26.80;33.50
15705;DHT22;7952;48.396;12.806;2023-06-04T08:08:52;26.60;33.60
15705;DHT22;7952;48.396;12.806;2023-06-04T08:11:18;26.50;33.60
15705;DHT22;7952;48.396;12.806;2023-06-04T08:13:44;26.40;33.80
15705;DHT22;7952;48.396;12.806;2023-06-04T08:16:10;26.40;33.90
15705;DHT22;7952;48.396;12.806;2023-06-04T08:18:42;26.20;33.80
15705;DHT22;7952;48.396;12.806;2023-06-04T08:21:09;26.10;34.10
15705;DHT22;7952;48.396;12.806;2023-06-04T08:23:36;26.00;34.10
15705;DHT22;7952;48.396;12.806;2023-06-04T08:26:02;26.00;34.30
15705;DHT22;7952;48.396;12.806;2023-06-04T08:28:28;25.90;34.40
15705;DHT22;7952;48.396;12.806;2023-06-04T08:30:53;25.80;34.50
15705;DHT22;7952;48.396;12.806;2023-06-04T08:33:19;25.90;34.80
15705;DHT22;7952;48.396;12.806;2023-06-04T08:35:45;25.90;34.70
15705;DHT22;7952;48.396;12.806;2023-06-04T08:38:10;25.90;34.70
15705;DHT22;7952;48.396;12.806;2023-06-04T08:40:36;25.90;34.70
15705;DHT22;7952;48.396;12.806;2023-06-04T08:43:02;25.90;34.70
15705;DHT22;7952;48.396;12.806;2023-06-04T08:45:27;25.90;34.70
15705;DHT22;7952;48.396;12.806;2023-06-04T08:47:54;25.90;34.80
15705;DHT22;7952;48.396;12.806;2023-06-04T08:50:22;25.80;34.80
15705;DHT22;7952;48.396;12.806;2023-06-04T08:52:57;25.70;34.80
15705;DHT22;7952;48.396;12.806;2023-06-04T08:55:23;25.70;34.90
15705;DHT22;7952;48.396;12.806;2023-06-04T08:57:52;25.60;35.00
15705;DHT22;7952;48.396;12.806;2023-06-04T09:00:19;25.60;35.00
15705;DHT22;7952;48.396;12.806;2023-06-04T09:02:45;25.60;35.00
15705;DHT22;7952;48.396;12.806;2023-06-04T09:05:19;25.60;35.00
15705;DHT22;7952;48.396;12.806;2023-06-04T09:07:46;25.50;35.00
15705;DHT22;7952;48.396;12.806;2023-06-04T09:10:14;25.40;35.00
15705;DHT22;7952;48.396;12.806;2023-06-04T09:12:45;25.40;35.10
15705;DHT22;7952;48.396;12.806;2023-06-04T09:15:12;25.40;35.30
15705;DHT22;7952;48.396;12.806;2023-06-04T09:17:38;25.40;35.50
15705;DHT22;7952;48.396;12.806;2023-06-04T09:20:04;25.60;35.50
15705;DHT22;7952;48.396;12.806;2023-06-04T09:22:34;25.70;35.40
15705;DHT22;7952;48.396;12.806;2023-06-04T09:25:03;25.80;35.20
15705;DHT22;7952;48.396;12.806;2023-06-04T09:27:38;25.90;34.90
15705;DHT22;7952;48.396;12.806;2023-06-04T09:30:04;25.80;34.70
15705;DHT22;7952;48.396;12.806;2023-06-04T09:32:31;25.80;34.90
15705;DHT22;7952;48.396;12.806;2023-06-04T09:37:41;25.60;34.60
15705;DHT22;7952;48.396;12.806;2023-06-04T09:40:08;25.60;35.00
15705;DHT22;7952;48.396;12.806;2023-06-04T09:42:48;25.60;35.00
15705;DHT22;7952;48.396;12.806;2023-06-04T09:45:33;25.70;34.90
15705;DHT22;7952;48.396;12.806;2023-06-04T09:48:01;25.70;34.80
15705;DHT22;7952;48.396;12.806;2023-06-04T09:52:54;25.90;35.00
15705;DHT22;7952;48.396;12.806;2023-06-04T09:55:20;26.00;35.00
15705;DHT22;7952;48.396;12.806;2023-06-04T09:57:48;26.00;34.70
15705;DHT22;7952;48.396;12.806;2023-06-04T10:00:24;26.10;34.70
15705;DHT22;7952;48.396;12.806;2023-06-04T10:02:56;26.10;34.70
15705;DHT22;7952;48.396;12.806;2023-06-04T10:05:24;26.10;34.80
15705;DHT22;7952;48.396;12.806;2023-06-04T10:07:51;26.20;34.90
15705;DHT22;7952;48.396;12.806;2023-06-04T10:10:25;26.20;34.80
15705;DHT22;7952;48.396;12.806;2023-06-04T10:12:59;26.30;34.60
15705;DHT22;7952;48.396;12.806;2023-06-04T10:15:26;26.30;34.50
15705;DHT22;7952;48.396;12.806;2023-06-04T10:17:52;26.30;34.60
15705;DHT22;7952;48.396;12.806;2023-06-04T10:20:19;26.30;34.60
15705;DHT22;7952;48.396;12.806;2023-06-04T10:22:47;26.40;34.80
15705;DHT22;7952;48.396;12.806;2023-06-04T10:25:14;26.50;34.60
15705;DHT22;7952;48.396;12.806;2023-06-04T10:27:40;26.50;34.50
15705;DHT22;7952;48.396;12.806;2023-06-04T10:30:07;26.60;34.50
15705;DHT22;7952;48.396;12.806;2023-06-04T10:32:34;26.60;34.50
15705;DHT22;7952;48.396;12.806;2023-06-04T10:35:07;26.60;34.40
15705;DHT22;7952;48.396;12.806;2023-06-04T10:37:33;26.60;34.50
15705;DHT22;7952;48.396;12.806;2023-06-04T10:39:59;26.60;34.50
15705;DHT22;7952;48.396;12.806;2023-06-04T10:42:25;26.60;34.50
15705;DHT22;7952;48.396;12.806;2023-06-04T10:44:53;26.70;34.70
15705;DHT22;7952;48.396;12.806;2023-06-04T10:47:24;26.80;34.70
15705;DHT22;7952;48.396;12.806;2023-06-04T10:49:51;26.90;34.50
15705;DHT22;7952;48.396;12.806;2023-06-04T10:52:18;27.00;34.50
15705;DHT22;7952;48.396;12.806;2023-06-04T10:54:45;27.20;34.50
15705;DHT22;7952;48.396;12.806;2023-06-04T10:57:16;27.30;34.40
15705;DHT22;7952;48.396;12.806;2023-06-04T10:59:59;27.40;34.40
15705;DHT22;7952;48.396;12.806;2023-06-04T11:02:26;27.50;34.30
15705;DHT22;7952;48.396;12.806;2023-06-04T11:05:03;27.50;34.10
15705;DHT22;7952;48.396;12.806;2023-06-04T11:07:46;27.50;34.10
15705;DHT22;7952;48.396;12.806;2023-06-04T11:10:12;27.50;34.20
15705;DHT22;7952;48.396;12.806;2023-06-04T11:12:48;27.40;34.10
15705;DHT22;7952;48.396;12.806;2023-06-04T11:15:16;27.40;34.20
15705;DHT22;7952;48.396;12.806;2023-06-04T11:17:57;27.40;34.30
15705;DHT22;7952;48.396;12.806;2023-06-04T11:20:26;27.50;34.30
15705;DHT22;7952;48.396;12.806;2023-06-04T11:22:56;27.40;34.00
15705;DHT22;7952;48.396;12.806;2023-06-04T11:25:23;27.30;34.00
15705;DHT22;7952;48.396;12.806;2023-06-04T11:27:52;27.20;34.10
15705;DHT22;7952;48.396;12.806;2023-06-04T11:30:18;27.10;34.20
15705;DHT22;7952;48.396;12.806;2023-06-04T11:32:44;27.10;34.40
15705;DHT22;7952;48.396;12.806;2023-06-04T11:35:10;27.10;34.30
15705;DHT22;7952;48.396;12.806;2023-06-04T11:37:39;27.00;34.40
15705;DHT22;7952;48.396;12.806;2023-06-04T11:40:18;27.00;34.20
15705;DHT22;7952;48.396;12.806;2023-06-04T11:42:47;26.90;34.10
15705;DHT22;7952;48.396;12.806;2023-06-04T11:45:13;26.90;34.30
15705;DHT22;7952;48.396;12.806;2023-06-04T11:47:44;26.90;34.60
15705;DHT22;7952;48.396;12.806;2023-06-04T11:50:11;27.00;34.60
15705;DHT22;7952;48.396;12.806;2023-06-04T11:52:37;27.10;34.60
15705;DHT22;7952;48.396;12.806;2023-06-04T11:55:04;27.30;34.40
15705;DHT22;7952;48.396;12.806;2023-06-04T11:57:31;27.30;34.10
15705;DHT22;7952;48.396;12.806;2023-06-04T11:59:57;27.30;34.00
15705;DHT22;7952;48.396;12.806;2023-06-04T12:02:23;27.20;33.80
15705;DHT22;7952;48.396;12.806;2023-06-04T12:04:48;27.10;34.00
15705;DHT22;7952;48.396;12.806;2023-06-04T12:07:20;27.10;34.20
15705;DHT22;7952;48.396;12.806;2023-06-04T12:09:46;27.10;34.30
15705;DHT22;7952;48.396;12.806;2023-06-04T12:12:12;27.10;34.20
15705;DHT22;7952;48.396;12.806;2023-06-04T12:14:38;27.10;34.10
15705;DHT22;7952;48.396;12.806;2023-06-04T12:17:08;27.10;34.00
15705;DHT22;7952;48.396;12.806;2023-06-04T12:19:48;27.00;34.00
15705;DHT22;7952;48.396;12.806;2023-06-04T12:22:14;27.00;34.00
15705;DHT22;7952;48.396;12.806;2023-06-04T12:24:50;27.00;34.10
15705;DHT22;7952;48.396;12.806;2023-06-04T12:27:20;27.00;34.00
15705;DHT22;7952;48.396;12.806;2023-06-04T12:30:00;27.00;34.10
15705;DHT22;7952;48.396;12.806;2023-06-04T12:32:26;27.00;34.20
15705;DHT22;7952;48.396;12.806;2023-06-04T12:34:53;27.10;34.30
15705;DHT22;7952;48.396;12.806;2023-06-04T12:37:23;27.20;34.20
15705;DHT22;7952;48.396;12.806;2023-06-04T12:39:51;27.20;34.50
15705;DHT22;7952;48.396;12.806;2023-06-04T12:42:18;27.30;33.90
15705;DHT22;7952;48.396;12.806;2023-06-04T12:44:45;27.30;33.90
15705;DHT22;7952;48.396;12.806;2023-06-04T12:47:10;27.30;34.10
15705;DHT22;7952;48.396;12.806;2023-06-04T12:49:37;27.30;34.10
15705;DHT22;7952;48.396;12.806;2023-06-04T12:52:04;27.50;34.00
15705;DHT22;7952;48.396;12.806;2023-06-04T12:54:31;27.50;33.80
15705;DHT22;7952;48.396;12.806;2023-06-04T12:56:58;27.50;33.70
15705;DHT22;7952;48.396;12.806;2023-06-04T12:59:27;27.50;33.80
15705;DHT22;7952;48.396;12.806;2023-06-04T13:01:55;27.50;33.80
15705;DHT22;7952;48.396;12.806;2023-06-04T13:04:21;27.50;33.90
15705;DHT22;7952;48.396;12.806;2023-06-04T13:06:49;27.60;34.00
15705;DHT22;7952;48.396;12.806;2023-06-04T13:09:17;27.70;33.80
15705;DHT22;7952;48.396;12.806;2023-06-04T13:11:44;27.80;33.60
15705;DHT22;7952;48.396;12.806;2023-06-04T13:14:13;27.70;33.60
15705;DHT22;7952;48.396;12.806;2023-06-04T13:16:39;27.80;33.50
15705;DHT22;7952;48.396;12.806;2023-06-04T13:19:05;27.70;33.40
15705;DHT22;7952;48.396;12.806;2023-06-04T13:21:32;27.70;33.10
15705;DHT22;7952;48.396;12.806;2023-06-04T13:23:58;27.50;33.10
15705;DHT22;7952;48.396;12.806;2023-06-04T13:26:23;27.40;33.40
15705;DHT22;7952;48.396;12.806;2023-06-04T13:28:49;27.30;33.50
15705;DHT22;7952;48.396;12.806;2023-06-04T13:31:15;27.30;33.80
15705;DHT22;7952;48.396;12.806;2023-06-04T13:33:41;27.30;33.80
15705;DHT22;7952;48.396;12.806;2023-06-04T13:36:07;27.40;33.80
15705;DHT22;7952;48.396;12.806;2023-06-04T13:38:33;27.50;33.70
15705;DHT22;7952;48.396;12.806;2023-06-04T13:40:59;27.60;33.70
15705;DHT22;7952;48.396;12.806;2023-06-04T13:43:25;27.70;34.30
15705;DHT22;7952;48.396;12.806;2023-06-04T13:45:50;27.70;33.50
15705;DHT22;7952;48.396;12.806;2023-06-04T13:48:16;27.70;33.60
15705;DHT22;7952;48.396;12.806;2023-06-04T13:50:42;27.60;33.50
15705;DHT22;7952;48.396;12.806;2023-06-04T13:53:09;27.50;33.50
15705;DHT22;7952;48.396;12.806;2023-06-04T13:55:34;27.40;33.50
15705;DHT22;7952;48.396;12.806;2023-06-04T13:58:00;27.30;33.70
15705;DHT22;7952;48.396;12.806;2023-06-04T14:00:26;27.30;33.70
15705;DHT22;7952;48.396;12.806;2023-06-04T14:02:52;27.20;33.80
15705;DHT22;7952;48.396;12.806;2023-06-04T14:05:20;27.20;33.80
15705;DHT22;7952;48.396;12.806;2023-06-04T14:07:46;27.20;33.60
15705;DHT22;7952;48.396;12.806;2023-06-04T14:10:12;27.10;33.60
15705;DHT22;7952;48.396;12.806;2023-06-04T14:12:38;27.10;33.80
15705;DHT22;7952;48.396;12.806;2023-06-04T14:15:10;27.10;33.80
15705;DHT22;7952;48.396;12.806;2023-06-04T14:17:39;27.10;33.90
15705;DHT22;7952;48.396;12.806;2023-06-04T14:20:06;27.20;34.00
15705;DHT22;7952;48.396;12.806;2023-06-04T14:22:38;27.20;33.90
15705;DHT22;7952;48.396;12.806;2023-06-04T14:25:05;27.20;33.70
15705;DHT22;7952;48.396;12.806;2023-06-04T14:27:31;27.20;33.60
15705;DHT22;7952;48.396;12.806;2023-06-04T14:29:57;27.20;33.80
15705;DHT22;7952;48.396;12.806;2023-06-04T14:32:23;27.20;33.90
15705;DHT22;7952;48.396;12.806;2023-06-04T14:34:49;27.20;33.90
15705;DHT22;7952;48.396;12.806;2023-06-04T14:37:14;27.20;33.90
15705;DHT22;7952;48.396;12.806;2023-06-04T14:39:40;27.20;33.70
15705;DHT22;7952;48.396;12.806;2023-06-04T14:42:06;27.10;33.70
15705;DHT22;7952;48.396;12.806;2023-06-04T14:44:32;27.00;33.60
15705;DHT22;7952;48.396;12.806;2023-06-04T14:46:58;26.90;33.60
15705;DHT22;7952;48.396;12.806;2023-06-04T14:49:24;26.90;33.70
15705;DHT22;7952;48.396;12.806;2023-06-04T14:51:50;26.80;33.70
15705;DHT22;7952;48.396;12.806;2023-06-04T14:54:15;26.80;33.90
15705;DHT22;7952;48.396;12.806;2023-06-04T14:56:41;26.80;33.90
15705;DHT22;7952;48.396;12.806;2023-06-04T14:59:07;26.80;33.90
15705;DHT22;7952;48.396;12.806;2023-06-04T15:01:37;26.80;33.80
15705;DHT22;7952;48.396;12.806;2023-06-04T15:04:03;26.70;33.50
15705;DHT22;7952;48.396;12.806;2023-06-04T15:06:29;26.60;33.50
15705;DHT22;7952;48.396;12.806;2023-06-04T15:08:55;26.60;33.60
15705;DHT22;7952;48.396;12.806;2023-06-04T15:11:20;26.50;33.60
15705;DHT22;7952;48.396;12.806;2023-06-04T15:13:46;26.40;33.70
15705;DHT22;7952;48.396;12.806;2023-06-04T15:16:12;26.40;33.70
15705;DHT22;7952;48.396;12.806;2023-06-04T15:18:38;26.40;33.80
15705;DHT22;7952;48.396;12.806;2023-06-04T15:21:03;26.30;33.90
15705;DHT22;7952;48.396;12.806;2023-06-04T15:23:29;26.30;34.00
15705;DHT22;7952;48.396;12.806;2023-06-04T15:25:55;26.30;34.00
15705;DHT22;7952;48.396;12.806;2023-06-04T15:28:20;26.30;34.00
15705;DHT22;7952;48.396;12.806;2023-06-04T15:30:46;26.30;34.10
15705;DHT22;7952;48.396;12.806;2023-06-04T15:33:12;26.30;34.00
15705;DHT22;7952;48.396;12.806;2023-06-04T15:35:38;26.30;34.00
15705;DHT22;7952;48.396;12.806;2023-06-04T15:38:03;26.30;33.90
15705;DHT22;7952;48.396;12.806;2023-06-04T15:40:29;26.30;33.90
15705;DHT22;7952;48.396;12.806;2023-06-04T15:42:55;26.30;34.00